PWSweather.com
Personal Weather Stations
Station Observations
WISCHPK61
Green Bay Schmitt Park, Green Bay, WI 54311

Green Bay Schmitt ParkGreen Bay, WI 54311

Lat: 44.514277, Lon: -87.935067

Elevation: 735

Station Type: Acu Rite Pro Weather Center model 02032C

http://greenbayweathercam.com

High Low Average
Temperature 82.2°F27.9°C 55.9°F13.3°C 65.6°F18.7°C
Dew Point 81.9°F27.7°C 55.6°F13.1°C 64.7°F18.2°C
Winds Calm Calm Calm Calm Calm SSWCalm SSW
Wind Gusts 1.2 mph1.9 kmh -- --
Humidity 99% 88% 97%
Pressure 29.17 in987.8 mb 28.95 in980.4 mb -
Precipitation 0.09 in2.3 mm - -
Hour Temp Dew Point Humidity Winds Wind Gusts Pressure Precip Precip Rate Daily Precip Total
12:00 AM 65.1°F18.4°C 64.8°F18.2°C 99% Calm Calm -- 28.99 in981.7 mb - 0.00 in0.0 mm 0.00 in0.0 mm
01:00 AM 64.4°F18.0°C 63.8°F17.7°C 98% Calm Calm -- 28.95 in980.4 mb - 0.09 in2.3 mm 0.09 in2.3 mm
02:00 AM 64.4°F18.0°C 62.3°F16.8°C 93% Calm Calm -- 28.95 in980.4 mb - 0.00 in0.0 mm 0.09 in2.3 mm
03:00 AM 62.4°F16.9°C 61.8°F16.6°C 98% Calm Calm -- 28.95 in980.4 mb - 0.00 in0.0 mm 0.09 in2.3 mm
04:00 AM 62.1°F16.7°C 61.2°F16.2°C 97% Calm Calm -- 28.97 in981.0 mb - 0.00 in0.0 mm 0.09 in2.3 mm
05:00 AM 61.3°F16.3°C 60.7°F15.9°C 98% Calm Calm -- 28.96 in980.7 mb - 0.00 in0.0 mm 0.09 in2.3 mm
06:00 AM 61.3°F16.3°C 61.0°F16.1°C 99% Calm Calm -- 28.97 in981.0 mb - 0.00 in0.0 mm 0.09 in2.3 mm
07:00 AM 62.4°F16.9°C 61.8°F16.6°C 98% Calm Calm -- 28.97 in981.0 mb - 0.00 in0.0 mm 0.09 in2.3 mm
08:00 AM 63.9°F17.7°C 61.8°F16.6°C 93% Calm Calm -- 28.97 in981.0 mb - 0.00 in0.0 mm 0.09 in2.3 mm
09:00 AM 64.8°F18.2°C 61.5°F16.4°C 89% Calm Calm -- 28.99 in981.7 mb - 0.00 in0.0 mm 0.09 in2.3 mm
10:00 AM 64.2°F17.9°C 63.9°F17.7°C 99% Calm Calm -- 28.99 in981.7 mb - 0.00 in0.0 mm 0.09 in2.3 mm
11:00 AM 64.6°F18.1°C 64.3°F17.9°C 99% Calm Calm -- 29.02 in982.7 mb - 0.00 in0.0 mm 0.09 in2.3 mm
12:00 PM 66.4°F19.1°C 66.1°F18.9°C 99% Calm Calm 1.2 mph1.9 kmh 29.05 in983.7 mb - 0.00 in0.0 mm 0.09 in2.3 mm
01:00 PM 68.4°F20.2°C 64.7°F18.2°C 88% Calm Calm -- 29.06 in984.1 mb - 0.00 in0.0 mm 0.09 in2.3 mm
02:00 PM 76.6°F24.8°C 76.3°F24.6°C 99% Calm Calm -- 29.07 in984.4 mb - 0.00 in0.0 mm 0.09 in2.3 mm
03:00 PM 82.2°F27.9°C 81.9°F27.7°C 99% Calm Calm -- 29.06 in984.1 mb - 0.00 in0.0 mm 0.09 in2.3 mm
04:00 PM 80.1°F26.7°C 79.8°F26.6°C 99% Calm Calm -- 29.06 in984.1 mb - 0.00 in0.0 mm 0.09 in2.3 mm
05:00 PM 73.8°F23.2°C 73.5°F23.1°C 99% Calm Calm -- 29.08 in984.8 mb - 0.00 in0.0 mm 0.09 in2.3 mm
06:00 PM 68.6°F20.3°C 68.3°F20.2°C 99% Calm Calm -- 29.08 in984.8 mb - 0.00 in0.0 mm 0.09 in2.3 mm
07:00 PM 66.0°F18.9°C 65.7°F18.7°C 99% Calm Calm -- 29.09 in985.1 mb - 0.00 in0.0 mm 0.09 in2.3 mm
08:00 PM 63.7°F17.6°C 63.4°F17.4°C 99% Calm Calm -- 29.11 in985.8 mb - 0.00 in0.0 mm 0.09 in2.3 mm
09:00 PM 60.8°F16.0°C 60.5°F15.8°C 99% Calm Calm -- 29.12 in986.1 mb - 0.00 in0.0 mm 0.09 in2.3 mm
10:00 PM 58.3°F14.6°C 55.7°F13.2°C 91% Calm Calm -- 29.15 in987.1 mb - 0.00 in0.0 mm 0.09 in2.3 mm
11:00 PM 57.2°F14.0°C 56.9°F13.8°C 99% Calm Calm -- 29.16 in987.5 mb - 0.00 in0.0 mm 0.09 in2.3 mm